Seattle Bryant

47° 40' 27"N, 122° 17' 17"W, Elevation 230 ft.
Pacific Time

Hourly observations for the last 72 hours

Date Time Temperature (F) Humi-
dity

(%)
Wind
(mph)
Pressure Rain (in)
Air Dew 6 Hour 1 Hr 3 Hr 6 Hr Day
Alt
(in)
Sea
Level

(mb)
Max Min
18 11:00 42.0 32.6 69 N 3 G 6 29.67 1004.8 0.00
18 10:00 37.8 31.6 37.8 35.4 78 ESE 1 G 4 29.66 1004.4 0.00
18 09:00 37.5 31.3 78 S 2 G 5 29.64 1003.8 0.00
18 08:00 35.7 31.0 83 S 4 G 11 29.62 1003.2 0.00
18 07:00 35.7 31.3 84 SSE 6 G 13 29.61 1002.6 0.00
18 06:00 36.1 31.7 84 SSE 5 G 13 29.60 1002.4 0.00
18 05:00 36.3 31.0 81 S 5 G 13 29.58 1001.8 0.00
18 04:00 37.5 31.6 41.5 37.4 79 S 4 G 10 29.58 1001.6 0.00
18 03:00 37.7 32.1 80 S 6 G 15 29.58 1001.6 0.00
18 02:00 38.3 32.4 79 SW 4 G 9 29.58 1001.6 0.00
18 01:00 39.2 32.9 78 S 3 G 14 29.57 1001.5 0.00
18 00:00 39.8 33.5 78 S 4 G 9 29.57 1001.4 0.18
17 23:00 40.7 33.1 74 SSW 8 G 16 29.56 1001.0 0.18
17 22:00 41.5 35.2 46.0 41.5 78 S 4 G 14 29.55 1000.7 0.18
17 21:00 42.1 36.4 80 SSW 5 G 19 29.54 1000.3 0.18
17 20:00 43.0 37.6 81 SSW 7 G 13 29.53 1000.0 0.18
17 19:00 43.6 39.1 84 SSW 8 G 19 29.52 999.8 0.18
17 18:00 44.1 37.7 78 S 8 G 19 29.53 1000.0 0.18
17 17:00 44.8 37.4 75 SSW 5 G 19 29.55 1000.6 0.18
17 16:00 46.0 37.8 51.9 46.0 73 SSW 10 G 19 29.55 1000.6 0.01 0.18
17 15:00 48.1 38.8 70 SW 8 G 17 29.55 1000.5 0.18
17 14:00 50.5 38.8 64 SW 9 G 25 29.53 1000.0 0.18
17 13:00 51.1 43.1 74 SSW 10 G 27 29.50 999.2 0.01 0.18
17 12:00 49.5 44.2 82 SSW 9 G 21 29.55 1000.5 0.18
17 11:00 48.1 44.7 88 SW 8 G 20 29.56 1000.9 0.01 0.18
17 10:00 46.4 44.5 46.4 43.3 93 SSW 16 G 32 29.53 1000.1 0.01 0.04 0.17 0.17
17 09:00 43.9 42.3 94 S 15 G 27 29.57 1001.5 0.02 0.16
17 08:00 44.1 41.9 92 S 10 G 21 29.70 1005.8 0.01 0.14
17 07:00 43.8 41.3 91 SSW 8 G 21 29.76 1008.0 0.02 0.13 0.13
17 06:00 43.8 41.6 92 SSW 7 G 13 29.82 1009.8 0.02 0.11
17 05:00 44.3 42.4 93 S 6 G 15 29.86 1011.2 0.09 0.09
17 04:00 44.8 42.9 45.4 42.4 93 S 4 G 14 29.92 1013.4 0.01 0.00
17 03:00 45.4 42.6 90 S 6 G 12 29.97 1014.9 0.00
17 02:00 45.3 42.8 91 S 4 G 16 30.02 1016.5 0.00
17 01:00 45.3 43.1 92 S 4 G 16 30.05 1017.5 0.01 0.00
17 00:00 44.6 43.0 94 WSW 3 G 6 30.08 1018.6 0.15
16 23:00 44.0 42.7 95 S 2 G 5 30.08 1018.7 0.01 0.15
16 22:00 42.4 40.8 46.8 42.2 94 N 0 G 1 30.11 1019.6 0.06 0.14
16 21:00 42.3 40.7 94 NNE 4 G 5 30.12 1020.1 0.14
16 20:00 43.4 41.2 92 NNE 5 G 7 30.12 1020.1 0.14
16 19:00 46.7 44.5 92 SSW 3 G 7 30.12 1020.1 0.06 0.14
16 18:00 46.4 44.5 93 SSW 0 G 5 30.12 1020.0 0.06 0.14
16 17:00 46.4 43.9 91 S 4 G 7 30.12 1020.0 0.08
16 16:00 46.1 43.6 46.2 42.3 91 S 5 G 13 30.12 1020.0 0.08
16 15:00 45.2 43.0 92 S 5 G 10 30.11 1019.6 0.08
16 14:00 45.3 42.3 89 S 4 G 9 30.12 1020.1 0.08
16 13:00 44.8 41.8 89 SSW 4 G 10 30.14 1020.7 0.08
16 12:00 43.5 41.0 91 S 5 G 10 30.15 1021.1 0.08
16 11:00 43.0 40.3 90 S 6 G 14 30.17 1021.8 0.08
16 10:00 42.3 39.6 42.4 40.6 90 SSW 3 G 10 30.17 1021.7 0.01 0.08
16 09:00 41.6 39.2 91 S 6 G 13 30.17 1021.8 0.08
16 08:00 41.3 39.2 92 SSW 5 G 13 30.19 1022.2 0.08
16 07:00 41.0 39.1 93 S 4 G 15 30.19 1022.5 0.01 0.08
16 06:00 40.7 38.8 93 S 5 G 11 30.20 1022.8 0.01 0.08
16 05:00 40.7 38.8 93 SSE 3 G 12 30.22 1023.4 0.07
16 04:00 40.8 38.9 42.3 40.8 93 S 3 G 12 30.24 1024.2 0.02 0.07 0.07 0.07
16 03:00 41.1 39.0 92 SSE 3 G 6 30.27 1025.0 0.04 0.05
16 02:00 41.9 38.6 88 S 3 G 8 30.30 1026.1 0.01 0.01
16 01:00 42.0 37.8 85 S 5 G 10 30.30 1026.1 0.00
16 00:00 41.6 37.1 84 S 3 G 9 30.33 1027.2 0.01
15 23:00 41.8 36.4 81 S 3 G 12 30.35 1028.0 0.01
15 22:00 42.2 38.0 43.9 41.9 85 S 1 G 5 30.37 1028.4 0.01
15 21:00 42.3 38.1 85 S 3 G 7 30.36 1028.2 0.01
15 20:00 42.7 38.2 84 S 4 G 11 30.37 1028.5 0.01
15 19:00 43.0 38.2 83 SE 2 G 5 30.38 1028.8 0.01
15 18:00 43.7 37.9 80 S 2 G 5 30.38 1028.9 0.01
15 17:00 43.8 38.4 81 S 2 G 9 30.37 1028.5 0.01
15 16:00 43.5 38.1 43.7 41.3 81 SSE 1 G 4 30.39 1029.2 0.01 0.01
15 15:00 43.6 37.5 79 SW 2 G 6 30.38 1028.7 0.01
15 14:00 43.1 38.0 82 S 2 G 11 30.39 1029.1 0.01
15 13:00 41.9 38.6 88 S 3 G 7 30.40 1029.5 0.01 0.01 0.01
15 12:00 42.6 37.8 83 S 2 G 8 30.42 1030.1 0.00

Data generated by WxSolution Version 1.8.7.3, Build 2014.12.21.